sensor_id;sensor_type;location;lat;lon;timestamp;P1;durP1;ratioP1;P2;durP2;ratioP2
48935;SDS011;34745;52.276;10.528;2022-08-18T00:02:00;9.00;;;6.88;;
48935;SDS011;34745;52.276;10.528;2022-08-18T00:04:29;12.77;;;7.30;;
48935;SDS011;34745;52.276;10.528;2022-08-18T00:07:02;10.20;;;7.35;;
48935;SDS011;34745;52.276;10.528;2022-08-18T00:09:29;15.40;;;8.10;;
48935;SDS011;34745;52.276;10.528;2022-08-18T00:11:59;13.82;;;7.25;;
48935;SDS011;34745;52.276;10.528;2022-08-18T00:14:28;9.38;;;7.72;;
48935;SDS011;34745;52.276;10.528;2022-08-18T00:16:55;9.63;;;7.72;;
48935;SDS011;34745;52.276;10.528;2022-08-18T00:19:24;10.20;;;7.28;;
48935;SDS011;34745;52.276;10.528;2022-08-18T00:22:12;13.07;;;8.18;;
48935;SDS011;34745;52.276;10.528;2022-08-18T00:24:42;14.73;;;8.60;;
48935;SDS011;34745;52.276;10.528;2022-08-18T00:27:15;11.82;;;8.68;;
48935;SDS011;34745;52.276;10.528;2022-08-18T00:29:48;14.15;;;8.70;;
48935;SDS011;34745;52.276;10.528;2022-08-18T00:32:16;12.23;;;8.43;;
48935;SDS011;34745;52.276;10.528;2022-08-18T00:34:47;11.60;;;8.65;;
48935;SDS011;34745;52.276;10.528;2022-08-18T00:37:15;13.18;;;8.27;;
48935;SDS011;34745;52.276;10.528;2022-08-18T00:39:42;16.60;;;8.32;;
48935;SDS011;34745;52.276;10.528;2022-08-18T00:42:13;14.30;;;7.43;;
48935;SDS011;34745;52.276;10.528;2022-08-18T00:44:57;16.45;;;8.00;;
48935;SDS011;34745;52.276;10.528;2022-08-18T00:47:27;11.80;;;8.15;;
48935;SDS011;34745;52.276;10.528;2022-08-18T00:50:10;14.77;;;7.95;;
48935;SDS011;34745;52.276;10.528;2022-08-18T00:52:42;9.48;;;7.47;;
48935;SDS011;34745;52.276;10.528;2022-08-18T00:55:13;12.75;;;7.45;;
48935;SDS011;34745;52.276;10.528;2022-08-18T00:57:43;10.00;;;7.63;;
48935;SDS011;34745;52.276;10.528;2022-08-18T01:00:14;8.82;;;7.68;;
48935;SDS011;34745;52.276;10.528;2022-08-18T01:02:42;12.32;;;7.75;;
48935;SDS011;34745;52.276;10.528;2022-08-18T01:05:15;14.30;;;8.32;;
48935;SDS011;34745;52.276;10.528;2022-08-18T01:07:47;13.85;;;7.68;;
48935;SDS011;34745;52.276;10.528;2022-08-18T01:10:18;12.18;;;7.70;;
48935;SDS011;34745;52.276;10.528;2022-08-18T01:12:57;8.85;;;7.13;;
48935;SDS011;34745;52.276;10.528;2022-08-18T01:15:24;10.43;;;7.43;;
48935;SDS011;34745;52.276;10.528;2022-08-18T01:17:57;13.52;;;7.82;;
48935;SDS011;34745;52.276;10.528;2022-08-18T01:20:47;9.20;;;7.53;;
48935;SDS011;34745;52.276;10.528;2022-08-18T01:23:41;8.90;;;8.05;;
48935;SDS011;34745;52.276;10.528;2022-08-18T01:26:08;14.07;;;7.90;;
48935;SDS011;34745;52.276;10.528;2022-08-18T01:28:39;9.30;;;8.23;;
48935;SDS011;34745;52.276;10.528;2022-08-18T01:31:08;12.63;;;7.93;;
48935;SDS011;34745;52.276;10.528;2022-08-18T01:33:38;12.73;;;7.72;;
48935;SDS011;34745;52.276;10.528;2022-08-18T01:36:09;15.38;;;8.23;;
48935;SDS011;34745;52.276;10.528;2022-08-18T01:38:41;11.30;;;8.10;;
48935;SDS011;34745;52.276;10.528;2022-08-18T01:41:09;9.73;;;8.60;;
48935;SDS011;34745;52.276;10.528;2022-08-18T01:43:54;10.85;;;8.20;;
48935;SDS011;34745;52.276;10.528;2022-08-18T01:46:22;9.80;;;8.80;;
48935;SDS011;34745;52.276;10.528;2022-08-18T01:48:50;10.30;;;9.23;;
48935;SDS011;34745;52.276;10.528;2022-08-18T01:51:17;12.45;;;9.65;;
48935;SDS011;34745;52.276;10.528;2022-08-18T01:54:06;11.95;;;9.57;;
48935;SDS011;34745;52.276;10.528;2022-08-18T01:56:35;10.00;;;9.00;;
48935;SDS011;34745;52.276;10.528;2022-08-18T01:59:03;13.60;;;9.38;;
48935;SDS011;34745;52.276;10.528;2022-08-18T02:01:31;12.98;;;10.15;;
48935;SDS011;34745;52.276;10.528;2022-08-18T02:04:16;15.07;;;9.13;;
48935;SDS011;34745;52.276;10.528;2022-08-18T02:07:03;10.23;;;8.95;;
48935;SDS011;34745;52.276;10.528;2022-08-18T02:09:37;11.90;;;9.85;;
48935;SDS011;34745;52.276;10.528;2022-08-18T02:12:06;11.55;;;9.45;;
48935;SDS011;34745;52.276;10.528;2022-08-18T02:14:34;13.88;;;10.10;;
48935;SDS011;34745;52.276;10.528;2022-08-18T02:17:03;12.50;;;9.13;;
48935;SDS011;34745;52.276;10.528;2022-08-18T02:19:33;15.00;;;9.05;;
48935;SDS011;34745;52.276;10.528;2022-08-18T02:22:02;14.55;;;8.82;;
48935;SDS011;34745;52.276;10.528;2022-08-18T02:24:30;15.57;;;9.18;;
48935;SDS011;34745;52.276;10.528;2022-08-18T02:26:58;12.02;;;8.55;;
48935;SDS011;34745;52.276;10.528;2022-08-18T02:29:25;11.05;;;8.55;;
48935;SDS011;34745;52.276;10.528;2022-08-18T02:31:53;9.77;;;8.30;;
48935;SDS011;34745;52.276;10.528;2022-08-18T02:34:20;15.55;;;9.00;;
48935;SDS011;34745;52.276;10.528;2022-08-18T02:36:47;11.63;;;8.88;;
48935;SDS011;34745;52.276;10.528;2022-08-18T02:39:15;14.15;;;9.75;;
48935;SDS011;34745;52.276;10.528;2022-08-18T02:41:42;14.10;;;9.25;;
48935;SDS011;34745;52.276;10.528;2022-08-18T02:44:10;11.82;;;9.05;;
48935;SDS011;34745;52.276;10.528;2022-08-18T02:46:38;10.00;;;9.10;;
48935;SDS011;34745;52.276;10.528;2022-08-18T02:49:05;10.23;;;8.77;;
48935;SDS011;34745;52.276;10.528;2022-08-18T02:51:33;14.00;;;9.13;;
48935;SDS011;34745;52.276;10.528;2022-08-18T02:54:01;12.95;;;9.65;;
48935;SDS011;34745;52.276;10.528;2022-08-18T02:56:29;19.70;;;10.18;;
48935;SDS011;34745;52.276;10.528;2022-08-18T02:59:08;10.60;;;9.50;;
48935;SDS011;34745;52.276;10.528;2022-08-18T03:01:39;14.07;;;10.35;;
48935;SDS011;34745;52.276;10.528;2022-08-18T03:04:09;13.90;;;10.05;;
48935;SDS011;34745;52.276;10.528;2022-08-18T03:06:40;11.68;;;9.13;;
48935;SDS011;34745;52.276;10.528;2022-08-18T03:09:12;12.63;;;9.07;;
48935;SDS011;34745;52.276;10.528;2022-08-18T03:11:41;11.75;;;9.27;;
48935;SDS011;34745;52.276;10.528;2022-08-18T03:14:09;13.38;;;9.75;;
48935;SDS011;34745;52.276;10.528;2022-08-18T03:16:38;13.13;;;9.90;;
48935;SDS011;34745;52.276;10.528;2022-08-18T03:19:20;12.82;;;10.70;;
48935;SDS011;34745;52.276;10.528;2022-08-18T03:21:48;14.75;;;10.98;;
48935;SDS011;34745;52.276;10.528;2022-08-18T03:24:16;13.77;;;10.88;;
48935;SDS011;34745;52.276;10.528;2022-08-18T03:26:49;12.52;;;10.15;;
48935;SDS011;34745;52.276;10.528;2022-08-18T03:29:18;12.73;;;11.43;;
48935;SDS011;34745;52.276;10.528;2022-08-18T03:31:48;13.93;;;11.48;;
48935;SDS011;34745;52.276;10.528;2022-08-18T03:34:15;18.52;;;13.73;;
48935;SDS011;34745;52.276;10.528;2022-08-18T03:36:45;15.57;;;13.98;;
48935;SDS011;34745;52.276;10.528;2022-08-18T03:39:13;19.48;;;15.20;;
48935;SDS011;34745;52.276;10.528;2022-08-18T03:41:41;18.40;;;15.82;;
48935;SDS011;34745;52.276;10.528;2022-08-18T03:44:26;27.20;;;17.08;;
48935;SDS011;34745;52.276;10.528;2022-08-18T03:46:57;19.05;;;15.77;;
48935;SDS011;34745;52.276;10.528;2022-08-18T03:49:27;19.30;;;16.75;;
48935;SDS011;34745;52.276;10.528;2022-08-18T03:51:54;18.92;;;16.67;;
48935;SDS011;34745;52.276;10.528;2022-08-18T03:54:22;19.02;;;17.02;;
48935;SDS011;34745;52.276;10.528;2022-08-18T03:56:49;22.52;;;18.38;;
48935;SDS011;34745;52.276;10.528;2022-08-18T03:59:18;22.90;;;18.38;;
48935;SDS011;34745;52.276;10.528;2022-08-18T04:01:47;25.98;;;18.83;;
48935;SDS011;34745;52.276;10.528;2022-08-18T04:04:19;25.30;;;19.55;;
48935;SDS011;34745;52.276;10.528;2022-08-18T04:06:48;30.23;;;18.13;;
48935;SDS011;34745;52.276;10.528;2022-08-18T04:09:19;25.17;;;18.55;;
48935;SDS011;34745;52.276;10.528;2022-08-18T04:11:48;23.13;;;18.80;;
48935;SDS011;34745;52.276;10.528;2022-08-18T04:14:16;25.33;;;20.40;;
48935;SDS011;34745;52.276;10.528;2022-08-18T04:16:44;28.67;;;21.95;;
48935;SDS011;34745;52.276;10.528;2022-08-18T04:19:13;30.88;;;23.95;;
48935;SDS011;34745;52.276;10.528;2022-08-18T04:21:54;36.80;;;25.35;;
48935;SDS011;34745;52.276;10.528;2022-08-18T04:24:23;32.40;;;27.63;;
48935;SDS011;34745;52.276;10.528;2022-08-18T04:26:51;36.17;;;28.27;;
48935;SDS011;34745;52.276;10.528;2022-08-18T04:29:19;37.58;;;28.65;;
48935;SDS011;34745;52.276;10.528;2022-08-18T04:31:47;35.63;;;29.60;;
48935;SDS011;34745;52.276;10.528;2022-08-18T04:34:15;37.55;;;29.80;;
48935;SDS011;34745;52.276;10.528;2022-08-18T04:36:43;38.25;;;31.17;;
48935;SDS011;34745;52.276;10.528;2022-08-18T04:39:11;35.88;;;30.23;;
48935;SDS011;34745;52.276;10.528;2022-08-18T04:41:40;36.88;;;29.98;;
48935;SDS011;34745;52.276;10.528;2022-08-18T04:44:09;39.42;;;29.70;;
48935;SDS011;34745;52.276;10.528;2022-08-18T04:46:38;41.47;;;31.38;;
48935;SDS011;34745;52.276;10.528;2022-08-18T04:49:07;40.70;;;30.73;;
48935;SDS011;34745;52.276;10.528;2022-08-18T04:51:38;36.20;;;30.25;;
48935;SDS011;34745;52.276;10.528;2022-08-18T04:54:28;43.25;;;31.42;;
48935;SDS011;34745;52.276;10.528;2022-08-18T04:56:55;40.63;;;31.38;;
48935;SDS011;34745;52.276;10.528;2022-08-18T04:59:22;37.13;;;30.80;;
48935;SDS011;34745;52.276;10.528;2022-08-18T05:01:50;39.90;;;31.25;;
48935;SDS011;34745;52.276;10.528;2022-08-18T05:04:17;42.22;;;31.15;;
48935;SDS011;34745;52.276;10.528;2022-08-18T05:06:44;36.90;;;30.08;;
48935;SDS011;34745;52.276;10.528;2022-08-18T05:09:12;39.95;;;30.30;;
48935;SDS011;34745;52.276;10.528;2022-08-18T05:11:49;42.53;;;30.65;;
48935;SDS011;34745;52.276;10.528;2022-08-18T05:14:16;38.40;;;29.65;;
48935;SDS011;34745;52.276;10.528;2022-08-18T05:16:44;39.05;;;29.65;;
48935;SDS011;34745;52.276;10.528;2022-08-18T05:19:15;36.58;;;30.17;;
48935;SDS011;34745;52.276;10.528;2022-08-18T05:21:51;39.17;;;29.52;;
48935;SDS011;34745;52.276;10.528;2022-08-18T05:24:25;40.05;;;30.52;;
48935;SDS011;34745;52.276;10.528;2022-08-18T05:27:04;38.22;;;30.60;;
48935;SDS011;34745;52.276;10.528;2022-08-18T05:29:32;38.00;;;30.15;;
48935;SDS011;34745;52.276;10.528;2022-08-18T05:32:11;35.60;;;29.42;;
48935;SDS011;34745;52.276;10.528;2022-08-18T05:35:00;42.50;;;30.80;;
48935;SDS011;34745;52.276;10.528;2022-08-18T05:37:32;40.60;;;30.63;;
48935;SDS011;34745;52.276;10.528;2022-08-18T05:40:06;41.13;;;30.35;;
48935;SDS011;34745;52.276;10.528;2022-08-18T05:42:38;33.88;;;28.45;;
48935;SDS011;34745;52.276;10.528;2022-08-18T05:45:07;33.17;;;29.27;;
48935;SDS011;34745;52.276;10.528;2022-08-18T05:47:37;37.40;;;30.00;;
48935;SDS011;34745;52.276;10.528;2022-08-18T05:50:05;38.28;;;31.10;;
48935;SDS011;34745;52.276;10.528;2022-08-18T05:52:34;34.00;;;29.30;;
48935;SDS011;34745;52.276;10.528;2022-08-18T05:55:05;36.03;;;28.85;;
48935;SDS011;34745;52.276;10.528;2022-08-18T05:57:56;34.22;;;28.98;;
48935;SDS011;34745;52.276;10.528;2022-08-18T06:00:28;36.33;;;29.50;;
48935;SDS011;34745;52.276;10.528;2022-08-18T06:02:56;40.15;;;30.45;;
48935;SDS011;34745;52.276;10.528;2022-08-18T06:05:29;35.60;;;30.02;;
48935;SDS011;34745;52.276;10.528;2022-08-18T06:07:59;38.08;;;30.63;;
48935;SDS011;34745;52.276;10.528;2022-08-18T06:10:27;35.63;;;29.48;;
48935;SDS011;34745;52.276;10.528;2022-08-18T06:12:56;37.92;;;29.85;;
48935;SDS011;34745;52.276;10.528;2022-08-18T06:15:27;36.58;;;29.00;;
48935;SDS011;34745;52.276;10.528;2022-08-18T06:21:09;34.95;;;28.33;;
48935;SDS011;34745;52.276;10.528;2022-08-18T06:23:46;37.38;;;29.85;;
48935;SDS011;34745;52.276;10.528;2022-08-18T06:26:23;38.22;;;29.25;;
48935;SDS011;34745;52.276;10.528;2022-08-18T06:29:04;35.15;;;30.05;;
48935;SDS011;34745;52.276;10.528;2022-08-18T06:31:42;33.03;;;28.17;;
48935;SDS011;34745;52.276;10.528;2022-08-18T06:34:19;34.35;;;27.25;;
48935;SDS011;34745;52.276;10.528;2022-08-18T06:36:53;36.58;;;28.63;;
48935;SDS011;34745;52.276;10.528;2022-08-18T06:39:25;32.92;;;28.15;;
48935;SDS011;34745;52.276;10.528;2022-08-18T06:41:57;42.65;;;29.55;;
48935;SDS011;34745;52.276;10.528;2022-08-18T06:44:28;34.55;;;28.40;;
48935;SDS011;34745;52.276;10.528;2022-08-18T06:46:59;36.53;;;28.80;;
48935;SDS011;34745;52.276;10.528;2022-08-18T06:49:34;39.30;;;29.77;;
48935;SDS011;34745;52.276;10.528;2022-08-18T06:52:19;33.13;;;28.23;;
48935;SDS011;34745;52.276;10.528;2022-08-18T06:54:52;38.78;;;29.95;;
48935;SDS011;34745;52.276;10.528;2022-08-18T06:57:22;35.38;;;28.85;;
48935;SDS011;34745;52.276;10.528;2022-08-18T06:59:55;36.50;;;30.83;;
48935;SDS011;34745;52.276;10.528;2022-08-18T07:02:30;42.45;;;30.45;;
48935;SDS011;34745;52.276;10.528;2022-08-18T07:05:06;34.67;;;27.70;;
48935;SDS011;34745;52.276;10.528;2022-08-18T07:07:40;40.70;;;26.55;;
48935;SDS011;34745;52.276;10.528;2022-08-18T07:10:29;36.00;;;27.27;;
48935;SDS011;34745;52.276;10.528;2022-08-18T07:13:04;39.15;;;28.27;;
48935;SDS011;34745;52.276;10.528;2022-08-18T07:15:44;36.33;;;27.83;;
48935;SDS011;34745;52.276;10.528;2022-08-18T07:18:20;35.15;;;28.25;;
48935;SDS011;34745;52.276;10.528;2022-08-18T07:20:50;30.92;;;26.05;;
48935;SDS011;34745;52.276;10.528;2022-08-18T07:23:23;28.02;;;24.17;;
48935;SDS011;34745;52.276;10.528;2022-08-18T07:25:58;32.95;;;26.50;;
48935;SDS011;34745;52.276;10.528;2022-08-18T07:28:29;30.38;;;27.10;;
48935;SDS011;34745;52.276;10.528;2022-08-18T07:33:59;32.55;;;25.75;;
48935;SDS011;34745;52.276;10.528;2022-08-18T07:36:31;35.97;;;29.05;;
48935;SDS011;34745;52.276;10.528;2022-08-18T07:39:02;31.48;;;26.13;;
48935;SDS011;34745;52.276;10.528;2022-08-18T07:41:37;32.20;;;25.85;;
48935;SDS011;34745;52.276;10.528;2022-08-18T07:44:09;28.17;;;24.42;;
48935;SDS011;34745;52.276;10.528;2022-08-18T07:46:51;27.92;;;22.10;;
48935;SDS011;34745;52.276;10.528;2022-08-18T07:49:24;30.17;;;23.83;;
48935;SDS011;34745;52.276;10.528;2022-08-18T07:51:56;35.08;;;26.55;;
48935;SDS011;34745;52.276;10.528;2022-08-18T07:54:34;29.88;;;24.83;;
48935;SDS011;34745;52.276;10.528;2022-08-18T07:57:17;32.08;;;24.75;;
48935;SDS011;34745;52.276;10.528;2022-08-18T07:59:51;29.65;;;25.17;;
48935;SDS011;34745;52.276;10.528;2022-08-18T08:02:27;34.90;;;25.42;;
48935;SDS011;34745;52.276;10.528;2022-08-18T08:05:05;30.35;;;25.35;;
48935;SDS011;34745;52.276;10.528;2022-08-18T08:07:39;31.40;;;24.63;;
48935;SDS011;34745;52.276;10.528;2022-08-18T08:10:17;34.70;;;25.55;;
48935;SDS011;34745;52.276;10.528;2022-08-18T08:12:55;27.13;;;23.17;;
48935;SDS011;34745;52.276;10.528;2022-08-18T08:15:37;34.45;;;24.80;;
48935;SDS011;34745;52.276;10.528;2022-08-18T08:18:14;26.67;;;23.15;;
48935;SDS011;34745;52.276;10.528;2022-08-18T08:20:50;26.73;;;21.73;;
48935;SDS011;34745;52.276;10.528;2022-08-18T08:23:23;29.38;;;22.58;;
48935;SDS011;34745;52.276;10.528;2022-08-18T08:25:59;29.48;;;24.30;;
48935;SDS011;34745;52.276;10.528;2022-08-18T08:28:51;30.02;;;25.65;;
48935;SDS011;34745;52.276;10.528;2022-08-18T08:31:30;36.67;;;27.60;;
48935;SDS011;34745;52.276;10.528;2022-08-18T08:34:06;37.00;;;29.45;;
48935;SDS011;34745;52.276;10.528;2022-08-18T08:36:40;35.60;;;28.77;;
48935;SDS011;34745;52.276;10.528;2022-08-18T08:39:11;38.35;;;29.92;;
48935;SDS011;34745;52.276;10.528;2022-08-18T08:41:44;42.90;;;33.58;;
48935;SDS011;34745;52.276;10.528;2022-08-18T08:44:18;43.40;;;32.47;;
48935;SDS011;34745;52.276;10.528;2022-08-18T08:46:51;41.80;;;33.72;;
48935;SDS011;34745;52.276;10.528;2022-08-18T08:49:36;41.30;;;33.30;;
48935;SDS011;34745;52.276;10.528;2022-08-18T08:52:07;40.13;;;33.40;;
48935;SDS011;34745;52.276;10.528;2022-08-18T08:54:45;41.83;;;33.88;;
48935;SDS011;34745;52.276;10.528;2022-08-18T08:57:16;43.15;;;34.88;;
48935;SDS011;34745;52.276;10.528;2022-08-18T08:59:44;45.78;;;33.58;;
48935;SDS011;34745;52.276;10.528;2022-08-18T09:02:31;45.00;;;34.03;;
48935;SDS011;34745;52.276;10.528;2022-08-18T09:05:17;39.55;;;33.03;;
48935;SDS011;34745;52.276;10.528;2022-08-18T09:08:00;46.78;;;33.08;;
48935;SDS011;34745;52.276;10.528;2022-08-18T09:10:44;40.38;;;34.33;;
48935;SDS011;34745;52.276;10.528;2022-08-18T09:13:42;41.45;;;33.42;;
48935;SDS011;34745;52.276;10.528;2022-08-18T09:16:35;39.85;;;33.08;;
48935;SDS011;34745;52.276;10.528;2022-08-18T09:19:16;42.13;;;31.92;;
48935;SDS011;34745;52.276;10.528;2022-08-18T09:21:58;48.25;;;35.55;;
48935;SDS011;34745;52.276;10.528;2022-08-18T09:24:30;53.47;;;37.80;;
48935;SDS011;34745;52.276;10.528;2022-08-18T09:27:12;48.10;;;39.17;;
48935;SDS011;34745;52.276;10.528;2022-08-18T09:29:50;47.95;;;41.03;;
48935;SDS011;34745;52.276;10.528;2022-08-18T09:35:30;46.95;;;39.08;;
48935;SDS011;34745;52.276;10.528;2022-08-18T09:38:08;45.95;;;39.50;;
48935;SDS011;34745;52.276;10.528;2022-08-18T09:41:03;51.55;;;40.90;;
48935;SDS011;34745;52.276;10.528;2022-08-18T09:43:57;45.40;;;38.75;;
48935;SDS011;34745;52.276;10.528;2022-08-18T09:46:52;49.75;;;38.80;;
48935;SDS011;34745;52.276;10.528;2022-08-18T09:49:37;45.17;;;37.10;;
48935;SDS011;34745;52.276;10.528;2022-08-18T10:01:17;39.30;;;33.50;;
48935;SDS011;34745;52.276;10.528;2022-08-18T10:07:12;38.08;;;30.60;;
48935;SDS011;34745;52.276;10.528;2022-08-18T10:09:44;40.67;;;31.02;;
48935;SDS011;34745;52.276;10.528;2022-08-18T10:12:37;37.00;;;31.13;;
48935;SDS011;34745;52.276;10.528;2022-08-18T10:15:25;39.60;;;31.25;;
48935;SDS011;34745;52.276;10.528;2022-08-18T10:18:24;40.40;;;32.30;;
48935;SDS011;34745;52.276;10.528;2022-08-18T10:21:06;37.20;;;29.45;;
48935;SDS011;34745;52.276;10.528;2022-08-18T10:23:43;41.03;;;31.23;;
48935;SDS011;34745;52.276;10.528;2022-08-18T10:29:44;37.10;;;30.42;;
48935;SDS011;34745;52.276;10.528;2022-08-18T10:32:23;32.97;;;27.15;;
48935;SDS011;34745;52.276;10.528;2022-08-18T10:35:05;33.17;;;28.42;;
48935;SDS011;34745;52.276;10.528;2022-08-18T10:38:20;30.77;;;24.48;;
48935;SDS011;34745;52.276;10.528;2022-08-18T10:40:59;32.10;;;25.35;;
48935;SDS011;34745;52.276;10.528;2022-08-18T10:43:41;31.73;;;24.80;;
48935;SDS011;34745;52.276;10.528;2022-08-18T10:46:25;35.95;;;26.02;;
48935;SDS011;34745;52.276;10.528;2022-08-18T10:49:15;34.35;;;27.08;;
48935;SDS011;34745;52.276;10.528;2022-08-18T10:51:52;40.00;;;27.58;;
48935;SDS011;34745;52.276;10.528;2022-08-18T10:54:59;30.10;;;25.90;;
48935;SDS011;34745;52.276;10.528;2022-08-18T10:57:52;31.85;;;24.42;;
48935;SDS011;34745;52.276;10.528;2022-08-18T11:00:37;33.22;;;25.02;;
48935;SDS011;34745;52.276;10.528;2022-08-18T11:03:15;32.75;;;24.05;;
48935;SDS011;34745;52.276;10.528;2022-08-18T11:06:15;27.35;;;22.40;;
48935;SDS011;34745;52.276;10.528;2022-08-18T11:09:05;31.40;;;22.90;;
48935;SDS011;34745;52.276;10.528;2022-08-18T11:11:35;25.48;;;21.60;;
48935;SDS011;34745;52.276;10.528;2022-08-18T11:14:41;30.75;;;21.25;;
48935;SDS011;34745;52.276;10.528;2022-08-18T11:17:29;25.10;;;21.65;;
48935;SDS011;34745;52.276;10.528;2022-08-18T11:20:10;29.48;;;21.13;;
48935;SDS011;34745;52.276;10.528;2022-08-18T11:22:50;27.73;;;21.08;;
48935;SDS011;34745;52.276;10.528;2022-08-18T11:25:24;28.00;;;23.75;;
48935;SDS011;34745;52.276;10.528;2022-08-18T11:28:14;26.05;;;21.85;;
48935;SDS011;34745;52.276;10.528;2022-08-18T11:30:45;28.08;;;23.80;;
48935;SDS011;34745;52.276;10.528;2022-08-18T11:33:15;28.20;;;22.33;;
48935;SDS011;34745;52.276;10.528;2022-08-18T11:35:52;24.67;;;21.55;;
48935;SDS011;34745;52.276;10.528;2022-08-18T11:38:26;32.40;;;24.30;;
48935;SDS011;34745;52.276;10.528;2022-08-18T11:41:08;31.13;;;23.15;;
48935;SDS011;34745;52.276;10.528;2022-08-18T11:43:42;31.23;;;21.58;;
48935;SDS011;34745;52.276;10.528;2022-08-18T11:46:13;24.25;;;21.10;;
48935;SDS011;34745;52.276;10.528;2022-08-18T11:48:56;26.48;;;22.15;;
48935;SDS011;34745;52.276;10.528;2022-08-18T11:51:31;26.67;;;21.17;;
48935;SDS011;34745;52.276;10.528;2022-08-18T11:54:00;26.65;;;20.52;;
48935;SDS011;34745;52.276;10.528;2022-08-18T11:56:31;23.02;;;19.60;;
48935;SDS011;34745;52.276;10.528;2022-08-18T11:59:04;23.90;;;19.25;;
48935;SDS011;34745;52.276;10.528;2022-08-18T12:01:35;24.10;;;19.95;;
48935;SDS011;34745;52.276;10.528;2022-08-18T12:04:09;23.17;;;19.60;;
48935;SDS011;34745;52.276;10.528;2022-08-18T12:06:55;23.30;;;19.60;;
48935;SDS011;34745;52.276;10.528;2022-08-18T12:09:27;23.95;;;16.60;;
48935;SDS011;34745;52.276;10.528;2022-08-18T12:12:21;17.85;;;15.07;;
48935;SDS011;34745;52.276;10.528;2022-08-18T12:14:54;22.92;;;17.75;;
48935;SDS011;34745;52.276;10.528;2022-08-18T12:17:42;21.88;;;18.38;;
48935;SDS011;34745;52.276;10.528;2022-08-18T12:20:18;19.98;;;17.35;;
48935;SDS011;34745;52.276;10.528;2022-08-18T12:22:47;19.23;;;15.85;;
48935;SDS011;34745;52.276;10.528;2022-08-18T12:25:16;20.42;;;15.85;;
48935;SDS011;34745;52.276;10.528;2022-08-18T12:27:50;20.65;;;17.45;;
48935;SDS011;34745;52.276;10.528;2022-08-18T12:30:18;16.95;;;15.02;;
48935;SDS011;34745;52.276;10.528;2022-08-18T12:32:45;17.40;;;14.20;;
48935;SDS011;34745;52.276;10.528;2022-08-18T12:35:20;32.78;;;16.85;;
48935;SDS011;34745;52.276;10.528;2022-08-18T12:37:49;18.83;;;14.38;;
48935;SDS011;34745;52.276;10.528;2022-08-18T12:40:36;13.95;;;12.55;;
48935;SDS011;34745;52.276;10.528;2022-08-18T12:43:03;16.92;;;13.00;;
48935;SDS011;34745;52.276;10.528;2022-08-18T12:45:52;16.95;;;12.30;;
48935;SDS011;34745;52.276;10.528;2022-08-18T12:48:24;13.45;;;12.00;;
48935;SDS011;34745;52.276;10.528;2022-08-18T12:51:00;11.70;;;10.60;;
48935;SDS011;34745;52.276;10.528;2022-08-18T12:53:37;12.65;;;11.35;;
48935;SDS011;34745;52.276;10.528;2022-08-18T12:56:27;12.55;;;11.35;;
48935;SDS011;34745;52.276;10.528;2022-08-18T12:58:57;16.50;;;9.98;;
48935;SDS011;34745;52.276;10.528;2022-08-18T13:01:29;10.93;;;9.82;;
48935;SDS011;34745;52.276;10.528;2022-08-18T13:04:01;11.05;;;9.85;;
48935;SDS011;34745;52.276;10.528;2022-08-18T13:06:40;10.55;;;9.45;;
48935;SDS011;34745;52.276;10.528;2022-08-18T13:09:35;12.40;;;10.13;;
48935;SDS011;34745;52.276;10.528;2022-08-18T13:12:19;12.05;;;10.90;;
48935;SDS011;34745;52.276;10.528;2022-08-18T13:14:46;11.05;;;9.80;;
48935;SDS011;34745;52.276;10.528;2022-08-18T13:17:16;12.43;;;11.20;;
48935;SDS011;34745;52.276;10.528;2022-08-18T13:19:59;11.18;;;9.70;;
48935;SDS011;34745;52.276;10.528;2022-08-18T13:22:47;12.63;;;10.63;;
48935;SDS011;34745;52.276;10.528;2022-08-18T13:25:17;16.30;;;11.07;;
48935;SDS011;34745;52.276;10.528;2022-08-18T13:28:06;15.48;;;10.80;;
48935;SDS011;34745;52.276;10.528;2022-08-18T13:30:57;12.45;;;10.48;;
48935;SDS011;34745;52.276;10.528;2022-08-18T13:33:31;14.35;;;10.90;;
48935;SDS011;34745;52.276;10.528;2022-08-18T13:36:30;13.80;;;11.82;;
48935;SDS011;34745;52.276;10.528;2022-08-18T13:39:18;16.90;;;11.85;;
48935;SDS011;34745;52.276;10.528;2022-08-18T13:42:04;15.48;;;11.13;;
48935;SDS011;34745;52.276;10.528;2022-08-18T13:44:57;17.40;;;12.38;;
48935;SDS011;34745;52.276;10.528;2022-08-18T13:47:51;15.57;;;12.10;;
48935;SDS011;34745;52.276;10.528;2022-08-18T13:50:24;18.27;;;12.23;;
48935;SDS011;34745;52.276;10.528;2022-08-18T13:53:10;15.15;;;13.00;;
48935;SDS011;34745;52.276;10.528;2022-08-18T13:55:58;16.33;;;13.80;;
48935;SDS011;34745;52.276;10.528;2022-08-18T13:58:31;18.13;;;13.02;;
48935;SDS011;34745;52.276;10.528;2022-08-18T14:01:22;13.23;;;11.93;;
48935;SDS011;34745;52.276;10.528;2022-08-18T14:04:26;14.88;;;13.48;;
48935;SDS011;34745;52.276;10.528;2022-08-18T14:06:55;14.98;;;13.35;;
48935;SDS011;34745;52.276;10.528;2022-08-18T14:09:41;16.75;;;13.45;;
48935;SDS011;34745;52.276;10.528;2022-08-18T14:12:17;13.25;;;11.90;;
48935;SDS011;34745;52.276;10.528;2022-08-18T14:15:11;15.43;;;11.75;;
48935;SDS011;34745;52.276;10.528;2022-08-18T14:17:49;15.63;;;13.43;;
48935;SDS011;34745;52.276;10.528;2022-08-18T14:20:26;13.30;;;11.93;;
48935;SDS011;34745;52.276;10.528;2022-08-18T14:23:23;13.77;;;12.25;;
48935;SDS011;34745;52.276;10.528;2022-08-18T14:26:21;13.35;;;11.90;;
48935;SDS011;34745;52.276;10.528;2022-08-18T14:29:11;16.40;;;12.52;;
48935;SDS011;34745;52.276;10.528;2022-08-18T14:32:06;14.15;;;12.68;;
48935;SDS011;34745;52.276;10.528;2022-08-18T14:34:49;18.75;;;12.98;;
48935;SDS011;34745;52.276;10.528;2022-08-18T14:38:01;13.60;;;12.20;;
48935;SDS011;34745;52.276;10.528;2022-08-18T14:40:45;13.13;;;11.88;;
48935;SDS011;34745;52.276;10.528;2022-08-18T14:43:17;14.48;;;12.15;;
48935;SDS011;34745;52.276;10.528;2022-08-18T14:46:15;13.57;;;12.02;;
48935;SDS011;34745;52.276;10.528;2022-08-18T14:48:49;12.73;;;11.43;;
48935;SDS011;34745;52.276;10.528;2022-08-18T14:51:22;12.02;;;10.13;;
48935;SDS011;34745;52.276;10.528;2022-08-18T14:54:04;14.50;;;11.38;;
48935;SDS011;34745;52.276;10.528;2022-08-18T14:56:44;13.88;;;10.98;;
48935;SDS011;34745;52.276;10.528;2022-08-18T14:59:17;12.32;;;11.13;;
48935;SDS011;34745;52.276;10.528;2022-08-18T15:01:50;12.68;;;11.05;;
48935;SDS011;34745;52.276;10.528;2022-08-18T15:04:34;14.23;;;11.15;;
48935;SDS011;34745;52.276;10.528;2022-08-18T15:07:23;12.05;;;10.25;;
48935;SDS011;34745;52.276;10.528;2022-08-18T15:10:01;12.73;;;9.82;;
48935;SDS011;34745;52.276;10.528;2022-08-18T15:12:43;12.00;;;10.10;;
48935;SDS011;34745;52.276;10.528;2022-08-18T15:15:17;11.25;;;10.02;;
48935;SDS011;34745;52.276;10.528;2022-08-18T15:18:03;10.80;;;9.80;;
48935;SDS011;34745;52.276;10.528;2022-08-18T15:20:40;13.63;;;9.73;;
48935;SDS011;34745;52.276;10.528;2022-08-18T15:23:50;12.00;;;9.43;;
48935;SDS011;34745;52.276;10.528;2022-08-18T15:26:59;10.93;;;9.32;;
48935;SDS011;34745;52.276;10.528;2022-08-18T15:29:56;13.15;;;9.45;;
48935;SDS011;34745;52.276;10.528;2022-08-18T15:32:47;11.95;;;9.30;;